createdAt,value
2022-11-27T00:00:43.433Z,80.38
2022-11-27T00:03:10.036Z,80.34
2022-11-27T00:05:36.486Z,80.38
2022-11-27T00:08:02.840Z,79.72
2022-11-27T00:10:29.169Z,80.24
2022-11-27T00:12:55.508Z,80.23
2022-11-27T00:15:22.506Z,80.48
2022-11-27T00:17:48.846Z,80.39
2022-11-27T00:20:15.376Z,79.74
2022-11-27T00:22:41.712Z,79.64
2022-11-27T00:25:08.366Z,79.17
2022-11-27T00:27:34.708Z,79.23
2022-11-27T00:30:01.078Z,79.03
2022-11-27T00:32:27.442Z,79.16
2022-11-27T00:34:54.107Z,78.98
2022-11-27T00:37:20.427Z,78.82
2022-11-27T00:39:47.523Z,79.22
2022-11-27T00:42:13.908Z,79.34
2022-11-27T00:44:40.481Z,79.21
2022-11-27T00:47:07.077Z,79.25
2022-11-27T00:49:33.477Z,79.17
2022-11-27T00:51:59.818Z,79.13
2022-11-27T00:54:26.152Z,79.29
2022-11-27T00:56:52.496Z,79.19
2022-11-27T00:59:18.834Z,79.35
2022-11-27T01:01:46.287Z,79.08
2022-11-27T01:04:14.989Z,79.24
2022-11-27T01:06:42.313Z,78.75
2022-11-27T01:09:10.927Z,79.17
2022-11-27T01:11:37.366Z,78.57
2022-11-27T01:14:09.047Z,78.66
2022-11-27T01:16:38.550Z,78.96
2022-11-27T01:19:07.714Z,78.47
2022-11-27T01:21:34.836Z,78.80
2022-11-27T01:24:02.526Z,78.74
2022-11-27T01:26:29.227Z,79.59
2022-11-27T01:28:56.836Z,79.35
2022-11-27T01:31:26.218Z,79.19
2022-11-27T01:33:58.729Z,79.05
2022-11-27T01:36:25.911Z,78.94
2022-11-27T01:38:52.427Z,79.50
2022-11-27T01:41:18.805Z,79.62
2022-11-27T01:43:48.277Z,79.29
2022-11-27T01:46:39.236Z,79.36
2022-11-27T01:49:08.360Z,79.84
2022-11-27T01:51:41.253Z,79.35
2022-11-27T01:54:09.734Z,79.22
2022-11-27T01:56:36.928Z,79.85
2022-11-27T02:03:16.179Z,80.08
2022-11-27T02:05:42.734Z,80.40
2022-11-27T02:08:12.088Z,79.73
2022-11-27T02:10:49.455Z,80.14
2022-11-27T02:13:33.577Z,79.22
2022-11-27T02:16:29.651Z,79.43
2022-11-27T02:19:13.302Z,79.39
2022-11-27T02:21:54.529Z,79.85
2022-11-27T02:24:48.310Z,79.82
2022-11-27T02:27:36.501Z,79.90
2022-11-27T02:30:05.343Z,79.91
2022-11-27T02:32:40.134Z,79.38
2022-11-27T02:35:32.032Z,80.13
2022-11-27T02:38:10.443Z,79.92
2022-11-27T02:40:52.822Z,80.20
2022-11-27T02:43:24.978Z,79.79
2022-11-27T02:45:52.329Z,79.95
2022-11-27T02:48:22.648Z,79.64
2022-11-27T02:50:51.350Z,79.87
2022-11-27T02:53:30.894Z,79.98
2022-11-27T02:55:59.315Z,80.22
2022-11-27T02:58:29.053Z,80.25
2022-11-27T03:00:57.170Z,80.78
2022-11-27T03:03:29.504Z,80.07
2022-11-27T03:06:01.299Z,81.15
2022-11-27T03:08:41.300Z,80.89
2022-11-27T03:11:10.328Z,81.04
2022-11-27T03:13:39.331Z,81.77
2022-11-27T03:16:37.509Z,81.72
2022-11-27T03:19:22.006Z,81.36
2022-11-27T03:21:58.204Z,81.91
2022-11-27T03:24:25.061Z,82.42
2022-11-27T03:26:51.903Z,82.44
2022-11-27T03:29:35.959Z,82.31
2022-11-27T03:32:02.969Z,83.36
2022-11-27T03:34:29.558Z,83.00
2022-11-27T03:36:56.010Z,82.51
2022-11-27T03:39:23.526Z,82.34
2022-11-27T03:42:22.257Z,81.79
2022-11-27T03:45:19.247Z,81.57
2022-11-27T03:47:57.347Z,81.39
2022-11-27T03:50:29.555Z,80.98
2022-11-27T03:53:17.751Z,81.06
2022-11-27T03:55:53.447Z,80.58
2022-11-27T03:58:37.847Z,80.68
2022-11-27T04:01:09.762Z,80.58
2022-11-27T04:03:36.536Z,80.94
2022-11-27T04:06:03.430Z,81.24
2022-11-27T04:08:29.904Z,81.48
2022-11-27T04:10:56.339Z,81.74
2022-11-27T04:13:22.692Z,82.01
2022-11-27T04:15:49.172Z,81.32
2022-11-27T04:18:15.517Z,81.41
2022-11-27T04:20:41.846Z,82.34
2022-11-27T04:23:08.268Z,82.20
2022-11-27T04:25:34.658Z,81.68
2022-11-27T04:28:01.132Z,81.23
2022-11-27T04:30:27.474Z,81.44
2022-11-27T04:32:53.914Z,80.89
2022-11-27T04:35:20.273Z,81.47
2022-11-27T04:37:46.599Z,81.21
2022-11-27T04:40:13.287Z,80.66
2022-11-27T04:42:39.666Z,81.22
2022-11-27T04:45:06.557Z,80.62
2022-11-27T04:47:32.905Z,80.59
2022-11-27T04:49:59.229Z,79.96
2022-11-27T04:52:25.547Z,79.43
2022-11-27T04:54:55.451Z,79.09
2022-11-27T04:57:26.167Z,80.12
2022-11-27T04:59:52.545Z,80.03
2022-11-27T05:02:18.940Z,79.58
2022-11-27T05:04:45.302Z,79.30
2022-11-27T05:07:11.682Z,79.18
2022-11-27T05:09:38.087Z,79.50
2022-11-27T05:12:04.699Z,79.39
2022-11-27T05:14:31.072Z,78.67
2022-11-27T05:16:58.657Z,78.39
2022-11-27T05:19:27.949Z,78.16
2022-11-27T05:21:54.910Z,77.82
2022-11-27T05:24:24.201Z,77.09
2022-11-27T05:26:50.938Z,77.34
2022-11-27T05:29:18.072Z,77.39
2022-11-27T05:31:44.684Z,77.41
2022-11-27T05:34:11.458Z,76.95
2022-11-27T05:36:38.303Z,77.04
2022-11-27T05:39:06.838Z,76.05
2022-11-27T05:41:34.401Z,75.93
2022-11-27T05:44:00.748Z,75.77
2022-11-27T05:46:27.224Z,75.74
2022-11-27T05:48:53.583Z,75.31
2022-11-27T05:51:19.933Z,74.76
2022-11-27T05:53:46.300Z,75.43
2022-11-27T05:56:15.590Z,74.66
2022-11-27T05:58:43.256Z,74.71
2022-11-27T06:01:11.164Z,74.48
2022-11-27T06:03:39.005Z,73.19
2022-11-27T06:06:14.822Z,73.38
2022-11-27T06:08:41.812Z,72.88
2022-11-27T06:11:10.194Z,72.33
2022-11-27T06:13:37.697Z,71.85
2022-11-27T06:16:10.664Z,71.12
2022-11-27T06:18:37.056Z,70.77
2022-11-27T06:21:08.343Z,70.59
2022-11-27T06:23:35.358Z,70.67
2022-11-27T06:26:13.702Z,70.80
2022-11-27T06:28:40.937Z,69.85
2022-11-27T06:31:17.769Z,69.96
2022-11-27T06:33:44.870Z,69.67
2022-11-27T06:36:11.340Z,69.91
2022-11-27T06:38:38.747Z,69.54
2022-11-27T06:41:11.152Z,69.20
2022-11-27T06:43:37.862Z,69.25
2022-11-27T06:46:06.431Z,69.62
2022-11-27T06:48:33.754Z,69.58
2022-11-27T06:51:05.380Z,68.66
2022-11-27T06:53:34.190Z,68.82
2022-11-27T06:56:03.249Z,68.54
2022-11-27T06:58:31.172Z,68.30
2022-11-27T07:00:59.296Z,68.43
2022-11-27T07:03:26.376Z,68.56
2022-11-27T07:05:52.727Z,68.80
2022-11-27T07:08:19.136Z,68.35
2022-11-27T07:10:45.498Z,67.87
2022-11-27T07:13:11.843Z,67.97
2022-11-27T07:15:38.162Z,68.10
2022-11-27T07:18:04.542Z,68.31
2022-11-27T07:20:31.983Z,68.46
2022-11-27T07:22:58.278Z,68.58
2022-11-27T07:25:24.608Z,69.12
2022-11-27T07:27:50.919Z,68.92
2022-11-27T07:30:17.533Z,68.77
2022-11-27T07:32:43.869Z,68.71
2022-11-27T07:35:10.314Z,68.73
2022-11-27T07:37:36.636Z,69.09
2022-11-27T07:40:03.652Z,69.02
2022-11-27T07:42:39.071Z,67.77
2022-11-27T07:45:08.244Z,68.12
2022-11-27T07:47:34.546Z,68.33
2022-11-27T07:50:01.099Z,68.32
2022-11-27T07:52:27.872Z,68.43
2022-11-27T07:54:54.308Z,69.04
2022-11-27T07:57:20.669Z,69.06
2022-11-27T07:59:47.621Z,69.28
2022-11-27T08:02:14.399Z,68.98
2022-11-27T08:04:40.917Z,69.35
2022-11-27T08:07:07.463Z,69.14
2022-11-27T08:09:33.881Z,69.57
2022-11-27T08:12:00.220Z,69.00
2022-11-27T08:14:26.612Z,68.67
2022-11-27T08:16:53.035Z,68.90
2022-11-27T08:19:19.455Z,69.02
2022-11-27T08:21:45.760Z,68.70
2022-11-27T08:24:12.067Z,69.00
2022-11-27T08:26:39.253Z,68.99
2022-11-27T08:29:06.547Z,68.76
2022-11-27T08:31:34.049Z,69.73
2022-11-27T08:34:00.501Z,69.26
2022-11-27T08:36:27.246Z,69.48
2022-11-27T08:38:54.439Z,69.07
2022-11-27T08:41:21.130Z,68.95
2022-11-27T08:43:47.556Z,68.87
2022-11-27T08:46:14.009Z,69.29
2022-11-27T08:48:41.716Z,68.61
2022-11-27T08:51:11.602Z,68.89
2022-11-27T08:53:38.532Z,69.36
2022-11-27T08:56:11.366Z,68.95
2022-11-27T08:58:38.039Z,68.13
2022-11-27T09:01:09.083Z,67.85
2022-11-27T09:03:35.529Z,68.08
2022-11-27T09:06:02.016Z,67.37
2022-11-27T09:08:28.316Z,66.67
2022-11-27T09:10:54.628Z,66.49
2022-11-27T09:13:20.991Z,66.54
2022-11-27T09:15:47.319Z,66.95
2022-11-27T09:18:13.617Z,64.92
2022-11-27T09:20:39.923Z,64.69
2022-11-27T09:23:10.122Z,62.85
2022-11-27T09:25:39.539Z,63.27
2022-11-27T09:28:05.851Z,63.24
2022-11-27T09:30:32.228Z,62.20
2022-11-27T09:32:58.523Z,61.67
2022-11-27T09:35:24.903Z,60.79
2022-11-27T09:37:51.283Z,60.43
2022-11-27T09:40:17.818Z,60.28
2022-11-27T09:42:52.156Z,59.58
2022-11-27T09:45:18.817Z,59.90
2022-11-27T09:48:13.352Z,58.90
2022-11-27T09:50:50.032Z,58.16
2022-11-27T09:53:33.858Z,58.96
2022-11-27T09:56:06.815Z,57.54
2022-11-27T09:58:42.436Z,58.08
2022-11-27T10:01:13.815Z,57.60
2022-11-27T10:03:43.166Z,56.92
2022-11-27T10:06:28.440Z,56.60
2022-11-27T10:09:15.886Z,56.26
2022-11-27T10:12:05.434Z,56.15
2022-11-27T10:14:49.302Z,55.44
2022-11-27T10:17:27.634Z,56.17
2022-11-27T10:20:23.430Z,54.88
2022-11-27T10:23:08.204Z,55.54
2022-11-27T10:25:40.872Z,55.59
2022-11-27T10:28:29.807Z,55.71
2022-11-27T10:31:02.803Z,55.67
2022-11-27T10:34:04.167Z,54.40
2022-11-27T10:36:44.726Z,55.38
2022-11-27T10:39:34.484Z,55.11
2022-11-27T10:42:10.474Z,55.32
2022-11-27T10:44:52.530Z,56.01
2022-11-27T10:47:22.916Z,56.23
2022-11-27T10:49:49.286Z,55.85
2022-11-27T10:52:18.431Z,55.22
2022-11-27T10:54:50.965Z,55.11
2022-11-27T10:57:47.345Z,55.09
2022-11-27T11:00:24.967Z,54.64
2022-11-27T11:03:03.400Z,55.68
2022-11-27T11:05:41.445Z,55.44
2022-11-27T11:08:19.929Z,54.83
2022-11-27T11:10:51.258Z,54.99
2022-11-27T11:13:21.064Z,54.77
2022-11-27T11:16:14.506Z,55.12
2022-11-27T11:18:52.125Z,55.13
2022-11-27T11:21:32.664Z,54.46
2022-11-27T11:24:12.684Z,55.05
2022-11-27T11:26:43.805Z,53.91
2022-11-27T11:29:31.355Z,56.24
2022-11-27T11:32:03.337Z,55.71
2022-11-27T11:34:31.137Z,54.83
2022-11-27T11:37:01.918Z,56.20
2022-11-27T11:39:35.007Z,55.90
2022-11-27T11:42:09.351Z,56.35
2022-11-27T11:44:38.313Z,57.80
2022-11-27T11:47:05.046Z,58.85
2022-11-27T11:49:35.902Z,57.73
2022-11-27T11:52:26.972Z,57.35
2022-11-27T11:55:19.084Z,58.79
2022-11-27T11:58:13.585Z,59.29
2022-11-27T12:01:18.911Z,59.67
2022-11-27T12:03:54.604Z,58.98
2022-11-27T12:06:28.628Z,59.44
2022-11-27T12:09:04.817Z,58.92
2022-11-27T12:11:40.537Z,59.80
2022-11-27T12:14:22.661Z,60.64
2022-11-27T12:17:26.677Z,61.05
2022-11-27T12:20:05.255Z,61.41
2022-11-27T12:22:40.007Z,62.65
2022-11-27T12:25:33.784Z,62.83
2022-11-27T12:28:18.704Z,63.45
2022-11-27T12:30:59.486Z,63.32
2022-11-27T12:33:28.620Z,63.82
2022-11-27T12:36:23.139Z,63.79
2022-11-27T12:39:09.341Z,63.93
2022-11-27T12:42:00.579Z,61.84
2022-11-27T12:44:31.569Z,63.00
2022-11-27T12:47:02.512Z,62.77
2022-11-27T12:49:34.592Z,63.39
2022-11-27T12:52:09.930Z,63.10
2022-11-27T12:55:02.984Z,63.03
2022-11-27T12:57:41.799Z,62.51
2022-11-27T13:00:15.968Z,62.43
2022-11-27T13:03:00.879Z,62.82
2022-11-27T13:05:32.271Z,63.25
2022-11-27T13:08:04.378Z,63.34
2022-11-27T13:10:38.120Z,63.55
2022-11-27T13:13:05.993Z,63.86
2022-11-27T13:15:43.441Z,62.84
2022-11-27T13:18:18.588Z,61.88
2022-11-27T13:20:51.994Z,62.66
2022-11-27T13:23:20.268Z,61.94
2022-11-27T13:25:51.889Z,62.28
2022-11-27T13:28:40.952Z,63.08
2022-11-27T13:31:09.212Z,62.76
2022-11-27T13:33:41.165Z,62.44
2022-11-27T13:36:19.412Z,62.32
2022-11-27T13:38:51.877Z,61.41
2022-11-27T13:41:31.722Z,61.95
2022-11-27T13:43:58.531Z,62.25
2022-11-27T13:46:27.734Z,62.70
2022-11-27T13:49:00.442Z,62.60
2022-11-27T13:51:32.387Z,62.61
2022-11-27T13:54:15.617Z,62.79
2022-11-27T13:56:42.526Z,62.56
2022-11-27T13:59:17.655Z,63.01
2022-11-27T14:01:55.654Z,62.42
2022-11-27T14:04:22.010Z,62.48
2022-11-27T14:06:58.277Z,63.30
2022-11-27T14:09:51.305Z,63.57
2022-11-27T14:12:32.843Z,63.14
2022-11-27T14:15:03.710Z,62.19
2022-11-27T14:17:44.636Z,62.32
2022-11-27T14:20:11.288Z,61.51
2022-11-27T14:23:07.281Z,61.63
2022-11-27T14:25:33.682Z,62.60
2022-11-27T14:28:10.795Z,63.20
2022-11-27T14:30:46.240Z,64.10
2022-11-27T14:33:22.205Z,64.45
2022-11-27T14:35:57.563Z,64.29
2022-11-27T14:38:24.779Z,63.75
2022-11-27T14:40:55.601Z,63.22
2022-11-27T14:43:28.559Z,63.12
2022-11-27T14:45:58.923Z,63.99
2022-11-27T14:48:41.340Z,64.94
2022-11-27T14:51:13.919Z,65.66
2022-11-27T14:53:40.931Z,65.99
2022-11-27T14:56:07.503Z,66.39
2022-11-27T14:58:34.027Z,66.31
2022-11-27T15:01:05.974Z,65.72
2022-11-27T15:03:33.380Z,65.54
2022-11-27T15:06:02.835Z,65.16
2022-11-27T15:08:34.415Z,65.46
2022-11-27T15:11:02.747Z,65.06
2022-11-27T15:13:31.997Z,65.42
2022-11-27T15:16:15.574Z,66.57
2022-11-27T15:18:48.208Z,67.65
2022-11-27T15:21:20.515Z,67.69
2022-11-27T15:23:49.626Z,67.54
2022-11-27T15:26:33.187Z,67.92
2022-11-27T15:28:59.644Z,67.46
2022-11-27T15:31:37.614Z,67.36
2022-11-27T15:34:20.361Z,67.65
2022-11-27T15:37:03.620Z,66.90
2022-11-27T15:39:38.132Z,68.21
2022-11-27T15:42:09.380Z,67.11
2022-11-27T15:44:36.282Z,67.52
2022-11-27T15:47:04.907Z,67.99
2022-11-27T15:49:31.382Z,67.73
2022-11-27T15:51:58.141Z,68.38
2022-11-27T15:54:25.152Z,68.52
2022-11-27T15:56:52.008Z,68.52
2022-11-27T15:59:20.563Z,67.42
2022-11-27T16:01:47.603Z,68.26
2022-11-27T16:04:14.012Z,67.53
2022-11-27T16:06:40.368Z,66.78
2022-11-27T16:09:06.779Z,65.99
2022-11-27T16:11:34.047Z,65.16
2022-11-27T16:14:00.450Z,64.43
2022-11-27T16:16:26.962Z,64.12
2022-11-27T16:18:57.438Z,64.83
2022-11-27T16:21:29.237Z,63.80
2022-11-27T16:23:58.788Z,63.36
2022-11-27T16:26:26.304Z,64.44
2022-11-27T16:28:52.999Z,62.99
2022-11-27T16:31:20.120Z,63.25
2022-11-27T16:33:46.856Z,63.09
2022-11-27T16:36:16.058Z,62.66
2022-11-27T16:38:43.412Z,62.88
2022-11-27T16:41:15.223Z,61.86
2022-11-27T16:43:45.162Z,61.31
2022-11-27T16:46:13.921Z,60.95
2022-11-27T16:48:43.187Z,60.94
2022-11-27T16:51:14.206Z,61.66
2022-11-27T16:53:42.316Z,61.29
2022-11-27T16:56:10.542Z,61.24
2022-11-27T16:58:39.840Z,62.08
2022-11-27T17:01:15.401Z,63.10
2022-11-27T17:03:41.989Z,63.49
2022-11-27T17:06:10.682Z,62.62
2022-11-27T17:08:37.518Z,63.38
2022-11-27T17:11:15.860Z,62.21
2022-11-27T17:13:42.169Z,62.40
2022-11-27T17:16:08.829Z,62.78
2022-11-27T17:18:39.954Z,62.73
2022-11-27T17:21:14.057Z,63.53
2022-11-27T17:23:43.001Z,64.63
2022-11-27T17:26:11.791Z,63.97
2022-11-27T17:28:38.407Z,63.47
2022-11-27T17:31:13.193Z,64.54
2022-11-27T17:33:39.698Z,64.28
2022-11-27T17:36:06.592Z,64.41
2022-11-27T17:38:33.688Z,64.14
2022-11-27T17:41:11.960Z,63.41
2022-11-27T17:43:39.296Z,64.64
2022-11-27T17:46:11.171Z,64.30
2022-11-27T17:48:38.490Z,64.95
2022-11-27T17:51:06.428Z,65.74
2022-11-27T17:53:33.132Z,65.44
2022-11-27T17:56:07.212Z,65.18
2022-11-27T17:58:33.974Z,65.31
2022-11-27T18:01:02.447Z,66.52
2022-11-27T18:03:29.619Z,68.68
2022-11-27T18:05:56.751Z,68.70
2022-11-27T18:08:23.748Z,70.50
2022-11-27T18:10:50.109Z,69.54
2022-11-27T18:13:17.815Z,69.72
2022-11-27T18:15:44.217Z,69.95
2022-11-27T18:18:10.625Z,70.57
2022-11-27T18:20:37.018Z,71.23
2022-11-27T18:23:03.343Z,72.31
2022-11-27T18:25:29.803Z,73.36
2022-11-27T18:27:57.840Z,73.14
2022-11-27T18:30:24.882Z,73.17
2022-11-27T18:32:51.205Z,72.48
2022-11-27T18:35:17.700Z,72.31
2022-11-27T18:37:44.033Z,72.60
2022-11-27T18:40:10.711Z,72.16
2022-11-27T18:42:37.045Z,72.60
2022-11-27T18:45:03.742Z,71.80
2022-11-27T18:47:30.143Z,72.12
2022-11-27T18:49:59.536Z,71.83
2022-11-27T18:52:25.843Z,70.75
2022-11-27T18:54:52.584Z,70.61
2022-11-27T18:57:19.484Z,70.96
2022-11-27T18:59:45.914Z,70.55
2022-11-27T19:02:13.104Z,70.67
2022-11-27T19:04:39.922Z,69.92
2022-11-27T19:07:06.637Z,70.63
2022-11-27T19:09:33.563Z,70.26
2022-11-27T19:12:00.118Z,71.42
2022-11-27T19:14:26.552Z,71.67
2022-11-27T19:16:53.066Z,71.75
2022-11-27T19:22:07.826Z,72.75
2022-11-27T19:24:34.484Z,74.67
2022-11-27T19:27:00.823Z,74.28
2022-11-27T19:29:27.130Z,75.60
2022-11-27T19:31:55.997Z,75.56
2022-11-27T19:34:22.697Z,75.67
2022-11-27T19:36:49.019Z,75.91
2022-11-27T19:39:15.713Z,75.59
2022-11-27T19:41:44.748Z,74.78
2022-11-27T19:44:12.577Z,75.27
2022-11-27T19:46:40.814Z,75.39
2022-11-27T19:49:12.093Z,75.02
2022-11-27T19:51:40.326Z,74.85
2022-11-27T19:54:15.549Z,74.64
2022-11-27T19:56:42.607Z,74.41
2022-11-27T19:59:10.881Z,74.16
2022-11-27T20:01:40.161Z,74.93
2022-11-27T20:04:07.820Z,74.39
2022-11-27T20:06:34.290Z,73.58
2022-11-27T20:09:03.981Z,73.78
2022-11-27T20:11:35.036Z,73.49
2022-11-27T20:14:04.775Z,74.28
2022-11-27T20:16:33.339Z,74.44
2022-11-27T20:19:02.681Z,74.42
2022-11-27T20:21:29.228Z,75.42
2022-11-27T20:23:57.135Z,75.01
2022-11-27T20:26:25.961Z,74.99
2022-11-27T20:28:53.934Z,75.05
2022-11-27T20:31:24.135Z,74.82
2022-11-27T20:33:56.339Z,74.31
2022-11-27T20:36:24.880Z,71.12
2022-11-27T20:38:52.544Z,71.74
2022-11-27T20:41:20.363Z,71.25
2022-11-27T20:43:50.468Z,70.00
2022-11-27T20:46:17.977Z,68.66
2022-11-27T20:48:49.224Z,68.39
2022-11-27T20:51:21.263Z,68.83
2022-11-27T20:53:49.112Z,68.99
2022-11-27T20:56:18.044Z,68.47
2022-11-27T20:58:46.127Z,68.60
2022-11-27T21:01:29.417Z,67.13
2022-11-27T21:03:57.367Z,66.82
2022-11-27T21:06:27.616Z,66.29
2022-11-27T21:08:54.772Z,66.17
2022-11-27T21:11:27.172Z,66.44
2022-11-27T21:13:59.662Z,66.47
2022-11-27T21:16:31.663Z,66.16
2022-11-27T21:19:01.940Z,66.37
2022-11-27T21:21:29.283Z,66.93
2022-11-27T21:23:55.848Z,67.01
2022-11-27T21:26:23.400Z,66.26
2022-11-27T21:28:50.230Z,65.04
2022-11-27T21:31:20.274Z,65.26
2022-11-27T21:33:54.923Z,65.49
2022-11-27T21:36:25.570Z,65.95
2022-11-27T21:38:52.750Z,64.13
2022-11-27T21:41:19.945Z,63.70
2022-11-27T21:43:48.596Z,64.29
2022-11-27T21:46:18.867Z,63.78
2022-11-27T21:48:47.341Z,63.87
2022-11-27T21:51:15.054Z,64.90
2022-11-27T21:53:42.638Z,65.96
2022-11-27T21:56:11.029Z,65.96
2022-11-27T21:58:37.425Z,65.99
2022-11-27T22:01:06.206Z,66.91
2022-11-27T22:03:32.951Z,67.09
2022-11-27T22:06:01.733Z,67.15
2022-11-27T22:08:29.464Z,66.99
2022-11-27T22:10:55.977Z,66.34
2022-11-27T22:13:23.299Z,65.92
2022-11-27T22:15:49.868Z,67.37
2022-11-27T22:18:17.104Z,67.30
2022-11-27T22:20:43.514Z,67.71
2022-11-27T22:23:09.889Z,68.81
2022-11-27T22:25:36.695Z,69.12
2022-11-27T22:28:03.187Z,68.59
2022-11-27T22:30:29.706Z,69.24
2022-11-27T22:32:56.469Z,69.76
2022-11-27T22:35:23.761Z,70.00
2022-11-27T22:37:53.341Z,69.71
2022-11-27T22:40:20.098Z,70.74
2022-11-27T22:42:46.927Z,71.61
2022-11-27T22:45:13.360Z,72.18
2022-11-27T22:47:40.008Z,72.98
2022-11-27T22:50:07.292Z,73.99
2022-11-27T22:52:33.635Z,74.06
2022-11-27T22:55:00.030Z,75.60
2022-11-27T22:57:26.737Z,75.81
2022-11-27T22:59:53.143Z,76.48
2022-11-27T23:02:19.555Z,76.32
2022-11-27T23:04:46.172Z,77.14
2022-11-27T23:07:12.720Z,77.29
2022-11-27T23:09:39.292Z,76.76
2022-11-27T23:12:05.723Z,76.75
2022-11-27T23:14:32.107Z,77.66
2022-11-27T23:16:58.740Z,78.65
2022-11-27T23:19:25.221Z,79.23
2022-11-27T23:21:51.702Z,79.50
2022-11-27T23:24:18.179Z,80.14
2022-11-27T23:26:45.619Z,80.53
2022-11-27T23:29:12.694Z,81.00
2022-11-27T23:31:39.296Z,81.09
2022-11-27T23:34:09.003Z,81.81
2022-11-27T23:36:36.331Z,81.73
2022-11-27T23:39:07.829Z,82.34
2022-11-27T23:41:35.025Z,82.71
2022-11-27T23:44:02.025Z,82.66
2022-11-27T23:46:29.497Z,82.46
2022-11-27T23:48:57.421Z,83.04
2022-11-27T23:51:26.576Z,82.96
2022-11-27T23:53:53.731Z,83.09
2022-11-27T23:56:23.811Z,83.56
2022-11-27T23:58:50.432Z,83.38
